sensor_id;sensor_type;location;lat;lon;timestamp;P1;durP1;ratioP1;P2;durP2;ratioP2
51495;SDS011;37572;52.094;4.870;2022-08-03T00:01:17;12.35;;;2.35;;
51495;SDS011;37572;52.094;4.870;2022-08-03T00:03:43;8.48;;;1.80;;
51495;SDS011;37572;52.094;4.870;2022-08-03T00:06:08;6.32;;;2.00;;
51495;SDS011;37572;52.094;4.870;2022-08-03T00:08:34;7.05;;;2.35;;
51495;SDS011;37572;52.094;4.870;2022-08-03T00:10:59;10.57;;;2.17;;
51495;SDS011;37572;52.094;4.870;2022-08-03T00:13:25;8.52;;;2.50;;
51495;SDS011;37572;52.094;4.870;2022-08-03T00:15:50;8.38;;;2.15;;
51495;SDS011;37572;52.094;4.870;2022-08-03T00:18:16;12.95;;;3.25;;
51495;SDS011;37572;52.094;4.870;2022-08-03T00:20:42;15.10;;;3.25;;
51495;SDS011;37572;52.094;4.870;2022-08-03T00:23:08;11.25;;;2.03;;
51495;SDS011;37572;52.094;4.870;2022-08-03T00:25:36;10.45;;;3.42;;
51495;SDS011;37572;52.094;4.870;2022-08-03T00:28:02;10.30;;;2.22;;
51495;SDS011;37572;52.094;4.870;2022-08-03T00:30:29;11.10;;;2.60;;
51495;SDS011;37572;52.094;4.870;2022-08-03T00:32:55;8.45;;;2.28;;
51495;SDS011;37572;52.094;4.870;2022-08-03T00:35:20;10.18;;;2.28;;
51495;SDS011;37572;52.094;4.870;2022-08-03T00:37:46;10.95;;;2.10;;
51495;SDS011;37572;52.094;4.870;2022-08-03T00:40:12;8.43;;;2.28;;
51495;SDS011;37572;52.094;4.870;2022-08-03T00:42:45;10.00;;;2.58;;
51495;SDS011;37572;52.094;4.870;2022-08-03T00:45:11;9.73;;;2.53;;
51495;SDS011;37572;52.094;4.870;2022-08-03T00:47:37;10.50;;;2.40;;
51495;SDS011;37572;52.094;4.870;2022-08-03T00:50:02;6.97;;;2.33;;
51495;SDS011;37572;52.094;4.870;2022-08-03T00:52:28;6.22;;;2.45;;
51495;SDS011;37572;52.094;4.870;2022-08-03T00:54:53;12.77;;;2.80;;
51495;SDS011;37572;52.094;4.870;2022-08-03T00:57:18;9.48;;;2.85;;
51495;SDS011;37572;52.094;4.870;2022-08-03T00:59:44;11.25;;;2.53;;
51495;SDS011;37572;52.094;4.870;2022-08-03T01:02:10;4.45;;;1.98;;
51495;SDS011;37572;52.094;4.870;2022-08-03T01:04:35;9.02;;;2.22;;
51495;SDS011;37572;52.094;4.870;2022-08-03T01:07:16;8.38;;;3.20;;
51495;SDS011;37572;52.094;4.870;2022-08-03T01:12:28;8.20;;;2.15;;
51495;SDS011;37572;52.094;4.870;2022-08-03T01:17:48;14.05;;;3.33;;
51495;SDS011;37572;52.094;4.870;2022-08-03T01:20:19;9.07;;;3.38;;
51495;SDS011;37572;52.094;4.870;2022-08-03T01:26:08;14.68;;;2.75;;
51495;SDS011;37572;52.094;4.870;2022-08-03T01:34:25;11.90;;;2.50;;
51495;SDS011;37572;52.094;4.870;2022-08-03T01:36:55;13.80;;;2.72;;
51495;SDS011;37572;52.094;4.870;2022-08-03T01:39:23;8.68;;;2.92;;
51495;SDS011;37572;52.094;4.870;2022-08-03T01:41:53;11.07;;;2.95;;
51495;SDS011;37572;52.094;4.870;2022-08-03T01:44:23;10.20;;;2.42;;
51495;SDS011;37572;52.094;4.870;2022-08-03T01:49:19;13.98;;;3.20;;
51495;SDS011;37572;52.094;4.870;2022-08-03T01:51:46;8.63;;;2.47;;
51495;SDS011;37572;52.094;4.870;2022-08-03T01:54:13;9.50;;;2.88;;
51495;SDS011;37572;52.094;4.870;2022-08-03T01:56:39;9.88;;;3.42;;
51495;SDS011;37572;52.094;4.870;2022-08-03T01:59:06;11.00;;;3.65;;
51495;SDS011;37572;52.094;4.870;2022-08-03T02:01:33;5.75;;;2.65;;
51495;SDS011;37572;52.094;4.870;2022-08-03T02:04:01;10.88;;;3.30;;
51495;SDS011;37572;52.094;4.870;2022-08-03T02:06:28;14.38;;;4.18;;
51495;SDS011;37572;52.094;4.870;2022-08-03T02:08:56;19.45;;;4.15;;
51495;SDS011;37572;52.094;4.870;2022-08-03T02:11:23;15.10;;;3.47;;
51495;SDS011;37572;52.094;4.870;2022-08-03T02:13:48;9.65;;;3.67;;
51495;SDS011;37572;52.094;4.870;2022-08-03T02:16:15;9.02;;;3.45;;
51495;SDS011;37572;52.094;4.870;2022-08-03T02:18:42;12.18;;;3.78;;
51495;SDS011;37572;52.094;4.870;2022-08-03T02:21:08;8.63;;;3.47;;
51495;SDS011;37572;52.094;4.870;2022-08-03T02:23:36;14.43;;;3.65;;
51495;SDS011;37572;52.094;4.870;2022-08-03T02:26:03;7.18;;;2.80;;
51495;SDS011;37572;52.094;4.870;2022-08-03T02:28:34;15.18;;;4.15;;
51495;SDS011;37572;52.094;4.870;2022-08-03T02:31:02;15.02;;;4.15;;
51495;SDS011;37572;52.094;4.870;2022-08-03T02:33:31;13.35;;;4.13;;
51495;SDS011;37572;52.094;4.870;2022-08-03T02:36:01;16.75;;;4.18;;
51495;SDS011;37572;52.094;4.870;2022-08-03T02:38:30;10.38;;;3.50;;
51495;SDS011;37572;52.094;4.870;2022-08-03T02:43:25;23.20;;;4.25;;
51495;SDS011;37572;52.094;4.870;2022-08-03T02:45:51;17.45;;;4.28;;
51495;SDS011;37572;52.094;4.870;2022-08-03T02:48:25;13.10;;;3.45;;
51495;SDS011;37572;52.094;4.870;2022-08-03T02:50:53;6.72;;;3.25;;
51495;SDS011;37572;52.094;4.870;2022-08-03T02:53:22;11.05;;;3.83;;
51495;SDS011;37572;52.094;4.870;2022-08-03T02:55:48;14.30;;;3.53;;
51495;SDS011;37572;52.094;4.870;2022-08-03T02:58:16;11.48;;;3.00;;
51495;SDS011;37572;52.094;4.870;2022-08-03T03:00:45;11.23;;;3.25;;
51495;SDS011;37572;52.094;4.870;2022-08-03T03:03:10;12.77;;;4.00;;
51495;SDS011;37572;52.094;4.870;2022-08-03T03:05:37;20.63;;;4.32;;
51495;SDS011;37572;52.094;4.870;2022-08-03T03:08:04;11.98;;;4.40;;
51495;SDS011;37572;52.094;4.870;2022-08-03T03:10:30;13.27;;;3.80;;
51495;SDS011;37572;52.094;4.870;2022-08-03T03:12:56;13.32;;;4.10;;
51495;SDS011;37572;52.094;4.870;2022-08-03T03:15:22;17.25;;;4.22;;
51495;SDS011;37572;52.094;4.870;2022-08-03T03:17:50;16.52;;;4.07;;
51495;SDS011;37572;52.094;4.870;2022-08-03T03:20:15;15.52;;;4.88;;
51495;SDS011;37572;52.094;4.870;2022-08-03T03:22:42;10.35;;;3.97;;
51495;SDS011;37572;52.094;4.870;2022-08-03T03:25:08;16.08;;;4.43;;
51495;SDS011;37572;52.094;4.870;2022-08-03T03:27:34;12.68;;;3.38;;
51495;SDS011;37572;52.094;4.870;2022-08-03T03:30:00;11.30;;;4.18;;
51495;SDS011;37572;52.094;4.870;2022-08-03T03:32:26;14.10;;;3.72;;
51495;SDS011;37572;52.094;4.870;2022-08-03T03:34:55;16.92;;;3.80;;
51495;SDS011;37572;52.094;4.870;2022-08-03T03:37:23;12.90;;;4.45;;
51495;SDS011;37572;52.094;4.870;2022-08-03T03:39:48;15.63;;;3.90;;
51495;SDS011;37572;52.094;4.870;2022-08-03T03:42:14;19.58;;;4.95;;
51495;SDS011;37572;52.094;4.870;2022-08-03T03:44:39;13.88;;;5.03;;
51495;SDS011;37572;52.094;4.870;2022-08-03T03:47:05;16.27;;;4.60;;
51495;SDS011;37572;52.094;4.870;2022-08-03T03:49:30;13.90;;;4.32;;
51495;SDS011;37572;52.094;4.870;2022-08-03T03:51:56;20.98;;;4.40;;
51495;SDS011;37572;52.094;4.870;2022-08-03T03:54:21;14.73;;;4.00;;
51495;SDS011;37572;52.094;4.870;2022-08-03T03:56:46;14.82;;;4.35;;
51495;SDS011;37572;52.094;4.870;2022-08-03T03:59:12;17.48;;;4.28;;
51495;SDS011;37572;52.094;4.870;2022-08-03T04:01:38;22.02;;;5.10;;
51495;SDS011;37572;52.094;4.870;2022-08-03T04:04:03;15.55;;;3.90;;
51495;SDS011;37572;52.094;4.870;2022-08-03T04:06:48;13.90;;;4.35;;
51495;SDS011;37572;52.094;4.870;2022-08-03T04:09:32;15.55;;;3.95;;
51495;SDS011;37572;52.094;4.870;2022-08-03T04:12:20;16.40;;;4.47;;
51495;SDS011;37572;52.094;4.870;2022-08-03T04:14:49;13.40;;;4.82;;
51495;SDS011;37572;52.094;4.870;2022-08-03T04:17:20;16.73;;;4.72;;
51495;SDS011;37572;52.094;4.870;2022-08-03T04:19:51;12.13;;;3.80;;
51495;SDS011;37572;52.094;4.870;2022-08-03T04:22:19;16.83;;;4.82;;
51495;SDS011;37572;52.094;4.870;2022-08-03T04:24:51;19.58;;;4.38;;
51495;SDS011;37572;52.094;4.870;2022-08-03T04:27:30;18.47;;;4.33;;
51495;SDS011;37572;52.094;4.870;2022-08-03T04:29:59;15.40;;;3.85;;
51495;SDS011;37572;52.094;4.870;2022-08-03T04:32:27;15.80;;;4.50;;
51495;SDS011;37572;52.094;4.870;2022-08-03T04:34:54;15.43;;;4.63;;
51495;SDS011;37572;52.094;4.870;2022-08-03T04:37:25;16.65;;;4.93;;
51495;SDS011;37572;52.094;4.870;2022-08-03T04:39:53;17.23;;;4.65;;
51495;SDS011;37572;52.094;4.870;2022-08-03T04:42:23;20.90;;;4.75;;
51495;SDS011;37572;52.094;4.870;2022-08-03T04:44:50;10.23;;;4.43;;
51495;SDS011;37572;52.094;4.870;2022-08-03T04:47:17;18.13;;;5.03;;
51495;SDS011;37572;52.094;4.870;2022-08-03T04:49:43;19.13;;;4.70;;
51495;SDS011;37572;52.094;4.870;2022-08-03T04:52:09;13.82;;;4.60;;
51495;SDS011;37572;52.094;4.870;2022-08-03T04:54:42;21.02;;;4.45;;
51495;SDS011;37572;52.094;4.870;2022-08-03T04:57:11;9.85;;;4.35;;
51495;SDS011;37572;52.094;4.870;2022-08-03T04:59:37;18.70;;;4.63;;
51495;SDS011;37572;52.094;4.870;2022-08-03T05:02:02;13.18;;;4.60;;
51495;SDS011;37572;52.094;4.870;2022-08-03T05:04:28;15.57;;;4.20;;
51495;SDS011;37572;52.094;4.870;2022-08-03T05:06:53;18.77;;;4.05;;
51495;SDS011;37572;52.094;4.870;2022-08-03T05:09:19;13.52;;;4.20;;
51495;SDS011;37572;52.094;4.870;2022-08-03T05:11:44;13.48;;;5.40;;
51495;SDS011;37572;52.094;4.870;2022-08-03T05:14:09;13.68;;;4.18;;
51495;SDS011;37572;52.094;4.870;2022-08-03T05:16:35;11.55;;;4.57;;
51495;SDS011;37572;52.094;4.870;2022-08-03T05:19:00;13.77;;;5.03;;
51495;SDS011;37572;52.094;4.870;2022-08-03T05:21:26;15.00;;;4.00;;
51495;SDS011;37572;52.094;4.870;2022-08-03T05:23:51;18.25;;;4.85;;
51495;SDS011;37572;52.094;4.870;2022-08-03T05:26:16;17.98;;;4.60;;
51495;SDS011;37572;52.094;4.870;2022-08-03T05:28:41;19.73;;;4.00;;
51495;SDS011;37572;52.094;4.870;2022-08-03T05:31:07;13.75;;;4.28;;
51495;SDS011;37572;52.094;4.870;2022-08-03T05:33:32;21.15;;;4.53;;
51495;SDS011;37572;52.094;4.870;2022-08-03T05:35:58;13.15;;;4.15;;
51495;SDS011;37572;52.094;4.870;2022-08-03T05:38:23;15.32;;;4.32;;
51495;SDS011;37572;52.094;4.870;2022-08-03T05:40:49;11.35;;;3.65;;
51495;SDS011;37572;52.094;4.870;2022-08-03T05:43:14;15.27;;;4.82;;
51495;SDS011;37572;52.094;4.870;2022-08-03T05:45:40;18.67;;;4.65;;
51495;SDS011;37572;52.094;4.870;2022-08-03T05:48:06;14.48;;;4.68;;
51495;SDS011;37572;52.094;4.870;2022-08-03T05:50:31;20.30;;;4.93;;
51495;SDS011;37572;52.094;4.870;2022-08-03T05:52:57;14.80;;;3.83;;
51495;SDS011;37572;52.094;4.870;2022-08-03T05:55:22;17.48;;;4.55;;
51495;SDS011;37572;52.094;4.870;2022-08-03T05:57:47;25.02;;;4.68;;
51495;SDS011;37572;52.094;4.870;2022-08-03T06:00:13;21.45;;;4.70;;
51495;SDS011;37572;52.094;4.870;2022-08-03T06:02:38;23.98;;;5.57;;
51495;SDS011;37572;52.094;4.870;2022-08-03T06:05:04;15.93;;;4.40;;
51495;SDS011;37572;52.094;4.870;2022-08-03T06:07:30;22.65;;;4.20;;
51495;SDS011;37572;52.094;4.870;2022-08-03T06:09:56;14.00;;;4.72;;
51495;SDS011;37572;52.094;4.870;2022-08-03T06:12:21;19.70;;;4.50;;
51495;SDS011;37572;52.094;4.870;2022-08-03T06:14:47;13.30;;;4.25;;
51495;SDS011;37572;52.094;4.870;2022-08-03T06:17:12;19.48;;;4.60;;
51495;SDS011;37572;52.094;4.870;2022-08-03T06:19:37;20.15;;;5.28;;
51495;SDS011;37572;52.094;4.870;2022-08-03T06:22:03;13.65;;;4.25;;
51495;SDS011;37572;52.094;4.870;2022-08-03T06:24:28;24.27;;;4.53;;
51495;SDS011;37572;52.094;4.870;2022-08-03T06:26:54;18.00;;;4.82;;
51495;SDS011;37572;52.094;4.870;2022-08-03T06:29:19;15.18;;;4.82;;
51495;SDS011;37572;52.094;4.870;2022-08-03T06:31:44;19.90;;;5.65;;
51495;SDS011;37572;52.094;4.870;2022-08-03T06:34:10;23.67;;;5.35;;
51495;SDS011;37572;52.094;4.870;2022-08-03T06:36:36;16.15;;;4.95;;
51495;SDS011;37572;52.094;4.870;2022-08-03T06:39:01;20.60;;;5.38;;
51495;SDS011;37572;52.094;4.870;2022-08-03T06:41:27;20.98;;;5.65;;
51495;SDS011;37572;52.094;4.870;2022-08-03T06:43:53;19.52;;;7.07;;
51495;SDS011;37572;52.094;4.870;2022-08-03T06:46:19;20.35;;;6.72;;
51495;SDS011;37572;52.094;4.870;2022-08-03T06:48:45;20.73;;;8.20;;
51495;SDS011;37572;52.094;4.870;2022-08-03T06:51:10;28.20;;;8.95;;
51495;SDS011;37572;52.094;4.870;2022-08-03T06:53:35;24.83;;;9.02;;
51495;SDS011;37572;52.094;4.870;2022-08-03T06:56:01;23.40;;;9.52;;
51495;SDS011;37572;52.094;4.870;2022-08-03T06:58:28;26.70;;;9.95;;
51495;SDS011;37572;52.094;4.870;2022-08-03T07:00:54;26.98;;;9.23;;
51495;SDS011;37572;52.094;4.870;2022-08-03T07:03:19;25.15;;;9.93;;
51495;SDS011;37572;52.094;4.870;2022-08-03T07:05:44;19.35;;;7.38;;
51495;SDS011;37572;52.094;4.870;2022-08-03T07:08:13;19.10;;;7.70;;
51495;SDS011;37572;52.094;4.870;2022-08-03T07:10:39;18.27;;;6.88;;
51495;SDS011;37572;52.094;4.870;2022-08-03T07:13:04;18.95;;;6.45;;
51495;SDS011;37572;52.094;4.870;2022-08-03T07:15:30;18.52;;;6.78;;
51495;SDS011;37572;52.094;4.870;2022-08-03T07:17:56;25.40;;;7.50;;
51495;SDS011;37572;52.094;4.870;2022-08-03T07:20:21;26.75;;;7.13;;
51495;SDS011;37572;52.094;4.870;2022-08-03T07:22:47;18.48;;;6.10;;
51495;SDS011;37572;52.094;4.870;2022-08-03T07:25:12;16.73;;;5.60;;
51495;SDS011;37572;52.094;4.870;2022-08-03T07:27:39;15.82;;;5.93;;
51495;SDS011;37572;52.094;4.870;2022-08-03T07:30:07;23.10;;;6.85;;
51495;SDS011;37572;52.094;4.870;2022-08-03T07:32:33;22.73;;;7.22;;
51495;SDS011;37572;52.094;4.870;2022-08-03T07:34:59;19.02;;;6.97;;
51495;SDS011;37572;52.094;4.870;2022-08-03T07:37:24;18.95;;;6.57;;
51495;SDS011;37572;52.094;4.870;2022-08-03T07:39:50;28.83;;;8.52;;
51495;SDS011;37572;52.094;4.870;2022-08-03T07:42:15;21.00;;;7.03;;
51495;SDS011;37572;52.094;4.870;2022-08-03T07:44:40;18.65;;;7.88;;
51495;SDS011;37572;52.094;4.870;2022-08-03T07:47:06;25.95;;;7.60;;
51495;SDS011;37572;52.094;4.870;2022-08-03T07:49:31;21.40;;;8.50;;
51495;SDS011;37572;52.094;4.870;2022-08-03T07:51:56;20.25;;;9.07;;
51495;SDS011;37572;52.094;4.870;2022-08-03T07:54:40;20.92;;;8.85;;
51495;SDS011;37572;52.094;4.870;2022-08-03T07:57:06;22.48;;;8.43;;
51495;SDS011;37572;52.094;4.870;2022-08-03T07:59:31;19.27;;;8.93;;
51495;SDS011;37572;52.094;4.870;2022-08-03T08:01:59;21.15;;;9.30;;
51495;SDS011;37572;52.094;4.870;2022-08-03T08:04:24;20.27;;;9.20;;
51495;SDS011;37572;52.094;4.870;2022-08-03T08:06:49;18.77;;;9.32;;
51495;SDS011;37572;52.094;4.870;2022-08-03T08:09:14;24.83;;;10.73;;
51495;SDS011;37572;52.094;4.870;2022-08-03T08:11:40;28.85;;;11.45;;
51495;SDS011;37572;52.094;4.870;2022-08-03T08:14:05;25.95;;;11.82;;
51495;SDS011;37572;52.094;4.870;2022-08-03T08:16:31;25.48;;;11.45;;
51495;SDS011;37572;52.094;4.870;2022-08-03T08:18:57;26.17;;;11.68;;
51495;SDS011;37572;52.094;4.870;2022-08-03T08:21:22;22.10;;;11.90;;
51495;SDS011;37572;52.094;4.870;2022-08-03T08:23:48;26.02;;;11.55;;
51495;SDS011;37572;52.094;4.870;2022-08-03T08:26:13;27.13;;;10.65;;
51495;SDS011;37572;52.094;4.870;2022-08-03T08:28:38;25.90;;;11.35;;
51495;SDS011;37572;52.094;4.870;2022-08-03T08:31:03;22.38;;;11.07;;
51495;SDS011;37572;52.094;4.870;2022-08-03T08:33:29;26.77;;;10.75;;
51495;SDS011;37572;52.094;4.870;2022-08-03T08:35:55;19.77;;;12.25;;
51495;SDS011;37572;52.094;4.870;2022-08-03T08:38:20;25.42;;;10.60;;
51495;SDS011;37572;52.094;4.870;2022-08-03T08:40:47;26.25;;;11.43;;
51495;SDS011;37572;52.094;4.870;2022-08-03T08:43:14;32.63;;;12.32;;
51495;SDS011;37572;52.094;4.870;2022-08-03T08:45:39;19.38;;;9.48;;
51495;SDS011;37572;52.094;4.870;2022-08-03T08:48:05;28.35;;;9.93;;
51495;SDS011;37572;52.094;4.870;2022-08-03T08:50:34;22.23;;;11.50;;
51495;SDS011;37572;52.094;4.870;2022-08-03T08:53:01;26.63;;;11.50;;
51495;SDS011;37572;52.094;4.870;2022-08-03T08:55:27;27.63;;;10.70;;
51495;SDS011;37572;52.094;4.870;2022-08-03T08:57:58;20.00;;;9.63;;
51495;SDS011;37572;52.094;4.870;2022-08-03T09:00:29;26.17;;;11.35;;
51495;SDS011;37572;52.094;4.870;2022-08-03T09:02:55;20.45;;;10.20;;
51495;SDS011;37572;52.094;4.870;2022-08-03T09:05:20;22.08;;;10.45;;
51495;SDS011;37572;52.094;4.870;2022-08-03T09:07:46;21.13;;;10.70;;
51495;SDS011;37572;52.094;4.870;2022-08-03T09:10:13;26.63;;;10.60;;
51495;SDS011;37572;52.094;4.870;2022-08-03T09:12:43;18.55;;;10.38;;
51495;SDS011;37572;52.094;4.870;2022-08-03T09:17:49;17.25;;;9.95;;
51495;SDS011;37572;52.094;4.870;2022-08-03T09:20:16;25.42;;;10.05;;
51495;SDS011;37572;52.094;4.870;2022-08-03T09:25:40;23.45;;;10.05;;
51495;SDS011;37572;52.094;4.870;2022-08-03T09:28:13;21.52;;;9.73;;
51495;SDS011;37572;52.094;4.870;2022-08-03T09:30:41;27.95;;;10.35;;
51495;SDS011;37572;52.094;4.870;2022-08-03T09:33:12;22.38;;;10.77;;
51495;SDS011;37572;52.094;4.870;2022-08-03T09:35:47;25.08;;;11.95;;
51495;SDS011;37572;52.094;4.870;2022-08-03T09:38:14;20.80;;;9.25;;
51495;SDS011;37572;52.094;4.870;2022-08-03T09:40:41;29.45;;;9.80;;
51495;SDS011;37572;52.094;4.870;2022-08-03T09:43:07;20.98;;;10.68;;
51495;SDS011;37572;52.094;4.870;2022-08-03T09:45:34;22.42;;;9.68;;
51495;SDS011;37572;52.094;4.870;2022-08-03T09:50:59;26.48;;;10.10;;
51495;SDS011;37572;52.094;4.870;2022-08-03T09:53:25;21.17;;;10.75;;
51495;SDS011;37572;52.094;4.870;2022-08-03T09:58:27;20.70;;;8.45;;
51495;SDS011;37572;52.094;4.870;2022-08-03T10:03:21;17.90;;;8.68;;
51495;SDS011;37572;52.094;4.870;2022-08-03T10:05:47;19.92;;;9.00;;
51495;SDS011;37572;52.094;4.870;2022-08-03T10:08:13;22.92;;;9.18;;
51495;SDS011;37572;52.094;4.870;2022-08-03T10:10:42;27.00;;;10.52;;
51495;SDS011;37572;52.094;4.870;2022-08-03T10:13:10;22.52;;;9.00;;
51495;SDS011;37572;52.094;4.870;2022-08-03T10:15:38;20.17;;;8.63;;
51495;SDS011;37572;52.094;4.870;2022-08-03T10:18:03;27.42;;;9.13;;
51495;SDS011;37572;52.094;4.870;2022-08-03T10:20:29;22.63;;;7.90;;
51495;SDS011;37572;52.094;4.870;2022-08-03T10:22:56;20.10;;;9.25;;
51495;SDS011;37572;52.094;4.870;2022-08-03T10:25:22;25.02;;;8.48;;
51495;SDS011;37572;52.094;4.870;2022-08-03T10:27:49;16.48;;;7.82;;
51495;SDS011;37572;52.094;4.870;2022-08-03T10:30:17;17.85;;;7.72;;
51495;SDS011;37572;52.094;4.870;2022-08-03T10:32:43;14.68;;;7.53;;
51495;SDS011;37572;52.094;4.870;2022-08-03T10:35:18;25.10;;;8.40;;
51495;SDS011;37572;52.094;4.870;2022-08-03T10:37:52;16.92;;;7.57;;
51495;SDS011;37572;52.094;4.870;2022-08-03T10:40:21;16.55;;;7.57;;
51495;SDS011;37572;52.094;4.870;2022-08-03T10:42:48;19.50;;;8.25;;
51495;SDS011;37572;52.094;4.870;2022-08-03T10:45:20;18.80;;;7.13;;
51495;SDS011;37572;52.094;4.870;2022-08-03T10:47:48;20.05;;;7.45;;
51495;SDS011;37572;52.094;4.870;2022-08-03T10:50:15;16.05;;;7.38;;
51495;SDS011;37572;52.094;4.870;2022-08-03T10:55:35;15.00;;;6.80;;
51495;SDS011;37572;52.094;4.870;2022-08-03T11:01:03;15.50;;;6.13;;
51495;SDS011;37572;52.094;4.870;2022-08-03T11:03:30;18.27;;;6.63;;
51495;SDS011;37572;52.094;4.870;2022-08-03T11:08:44;21.13;;;6.90;;
51495;SDS011;37572;52.094;4.870;2022-08-03T11:16:39;20.17;;;6.47;;
51495;SDS011;37572;52.094;4.870;2022-08-03T11:19:08;13.75;;;6.07;;
51495;SDS011;37572;52.094;4.870;2022-08-03T11:27:19;17.20;;;6.20;;
51495;SDS011;37572;52.094;4.870;2022-08-03T11:35:18;20.52;;;6.03;;
51495;SDS011;37572;52.094;4.870;2022-08-03T11:45:34;18.00;;;5.50;;
51495;SDS011;37572;52.094;4.870;2022-08-03T11:50:58;13.38;;;4.97;;
51495;SDS011;37572;52.094;4.870;2022-08-03T11:53:24;13.60;;;5.82;;
51495;SDS011;37572;52.094;4.870;2022-08-03T11:55:50;18.48;;;6.03;;
51495;SDS011;37572;52.094;4.870;2022-08-03T11:58:20;12.27;;;4.88;;
51495;SDS011;37572;52.094;4.870;2022-08-03T12:00:47;15.30;;;5.30;;
51495;SDS011;37572;52.094;4.870;2022-08-03T12:03:15;12.13;;;4.93;;
51495;SDS011;37572;52.094;4.870;2022-08-03T12:08:10;13.27;;;4.82;;
51495;SDS011;37572;52.094;4.870;2022-08-03T12:10:37;11.88;;;5.07;;
51495;SDS011;37572;52.094;4.870;2022-08-03T12:13:04;14.50;;;5.57;;
51495;SDS011;37572;52.094;4.870;2022-08-03T12:15:33;9.07;;;3.80;;
51495;SDS011;37572;52.094;4.870;2022-08-03T12:17:59;12.25;;;5.05;;
51495;SDS011;37572;52.094;4.870;2022-08-03T12:20:26;14.07;;;3.67;;
51495;SDS011;37572;52.094;4.870;2022-08-03T12:22:53;10.55;;;3.78;;
51495;SDS011;37572;52.094;4.870;2022-08-03T12:25:20;8.95;;;3.88;;
51495;SDS011;37572;52.094;4.870;2022-08-03T12:27:51;10.13;;;3.67;;
51495;SDS011;37572;52.094;4.870;2022-08-03T12:30:17;13.27;;;4.00;;
51495;SDS011;37572;52.094;4.870;2022-08-03T12:32:43;11.82;;;4.25;;
51495;SDS011;37572;52.094;4.870;2022-08-03T12:35:09;13.25;;;3.88;;
51495;SDS011;37572;52.094;4.870;2022-08-03T12:37:35;17.25;;;4.00;;
51495;SDS011;37572;52.094;4.870;2022-08-03T12:40:02;10.77;;;3.80;;
51495;SDS011;37572;52.094;4.870;2022-08-03T12:44:59;14.03;;;3.67;;
51495;SDS011;37572;52.094;4.870;2022-08-03T12:47:24;10.55;;;3.30;;
51495;SDS011;37572;52.094;4.870;2022-08-03T12:49:50;13.95;;;3.70;;
51495;SDS011;37572;52.094;4.870;2022-08-03T12:52:18;9.63;;;3.10;;
51495;SDS011;37572;52.094;4.870;2022-08-03T12:54:55;11.43;;;3.38;;
51495;SDS011;37572;52.094;4.870;2022-08-03T12:57:22;8.68;;;2.70;;
51495;SDS011;37572;52.094;4.870;2022-08-03T12:59:48;9.70;;;2.50;;
51495;SDS011;37572;52.094;4.870;2022-08-03T13:02:14;16.52;;;3.10;;
51495;SDS011;37572;52.094;4.870;2022-08-03T13:04:41;8.15;;;2.90;;
51495;SDS011;37572;52.094;4.870;2022-08-03T13:07:08;13.10;;;2.70;;
51495;SDS011;37572;52.094;4.870;2022-08-03T13:09:44;12.48;;;2.60;;
51495;SDS011;37572;52.094;4.870;2022-08-03T13:12:12;6.50;;;2.47;;
51495;SDS011;37572;52.094;4.870;2022-08-03T13:14:39;4.97;;;2.05;;
51495;SDS011;37572;52.094;4.870;2022-08-03T13:17:06;10.10;;;2.25;;
51495;SDS011;37572;52.094;4.870;2022-08-03T13:19:33;12.82;;;2.20;;
51495;SDS011;37572;52.094;4.870;2022-08-03T13:21:58;11.25;;;2.00;;
51495;SDS011;37572;52.094;4.870;2022-08-03T13:24:25;10.52;;;2.65;;
51495;SDS011;37572;52.094;4.870;2022-08-03T13:26:51;8.60;;;2.42;;
51495;SDS011;37572;52.094;4.870;2022-08-03T13:29:16;9.27;;;2.63;;
51495;SDS011;37572;52.094;4.870;2022-08-03T13:31:41;8.25;;;2.53;;
51495;SDS011;37572;52.094;4.870;2022-08-03T13:34:07;9.82;;;2.80;;
51495;SDS011;37572;52.094;4.870;2022-08-03T13:36:33;6.93;;;2.47;;
51495;SDS011;37572;52.094;4.870;2022-08-03T13:38:58;10.90;;;2.75;;
51495;SDS011;37572;52.094;4.870;2022-08-03T13:41:23;12.43;;;3.00;;
51495;SDS011;37572;52.094;4.870;2022-08-03T13:43:49;7.50;;;2.35;;
51495;SDS011;37572;52.094;4.870;2022-08-03T13:46:14;5.88;;;1.90;;
51495;SDS011;37572;52.094;4.870;2022-08-03T13:48:39;6.47;;;2.42;;
51495;SDS011;37572;52.094;4.870;2022-08-03T13:51:05;11.77;;;2.45;;
51495;SDS011;37572;52.094;4.870;2022-08-03T13:53:30;10.63;;;2.65;;
51495;SDS011;37572;52.094;4.870;2022-08-03T13:55:55;11.32;;;2.00;;
51495;SDS011;37572;52.094;4.870;2022-08-03T13:58:21;11.52;;;2.63;;
51495;SDS011;37572;52.094;4.870;2022-08-03T14:00:46;8.48;;;2.22;;
51495;SDS011;37572;52.094;4.870;2022-08-03T14:03:11;10.23;;;2.70;;
51495;SDS011;37572;52.094;4.870;2022-08-03T14:05:36;11.02;;;2.25;;
51495;SDS011;37572;52.094;4.870;2022-08-03T14:08:02;9.55;;;2.42;;
51495;SDS011;37572;52.094;4.870;2022-08-03T14:10:33;10.50;;;1.95;;
51495;SDS011;37572;52.094;4.870;2022-08-03T14:13:04;10.57;;;2.53;;
51495;SDS011;37572;52.094;4.870;2022-08-03T14:15:29;10.90;;;2.28;;
51495;SDS011;37572;52.094;4.870;2022-08-03T14:17:55;10.35;;;2.58;;
51495;SDS011;37572;52.094;4.870;2022-08-03T14:20:21;12.98;;;2.88;;
51495;SDS011;37572;52.094;4.870;2022-08-03T14:22:46;9.77;;;2.55;;
51495;SDS011;37572;52.094;4.870;2022-08-03T14:25:11;7.30;;;2.30;;
51495;SDS011;37572;52.094;4.870;2022-08-03T14:27:37;10.27;;;1.95;;
51495;SDS011;37572;52.094;4.870;2022-08-03T14:30:02;10.13;;;2.30;;
51495;SDS011;37572;52.094;4.870;2022-08-03T14:32:28;6.82;;;2.08;;
51495;SDS011;37572;52.094;4.870;2022-08-03T14:34:54;10.30;;;2.20;;
51495;SDS011;37572;52.094;4.870;2022-08-03T14:37:19;8.13;;;2.05;;
51495;SDS011;37572;52.094;4.870;2022-08-03T14:39:45;10.45;;;1.92;;
51495;SDS011;37572;52.094;4.870;2022-08-03T14:42:11;10.60;;;1.90;;
51495;SDS011;37572;52.094;4.870;2022-08-03T14:44:39;9.10;;;2.20;;
51495;SDS011;37572;52.094;4.870;2022-08-03T14:47:05;4.68;;;1.20;;
51495;SDS011;37572;52.094;4.870;2022-08-03T14:49:30;4.43;;;1.75;;
51495;SDS011;37572;52.094;4.870;2022-08-03T14:51:55;14.55;;;2.13;;
51495;SDS011;37572;52.094;4.870;2022-08-03T14:54:21;9.63;;;2.17;;
51495;SDS011;37572;52.094;4.870;2022-08-03T14:56:46;4.47;;;1.70;;
51495;SDS011;37572;52.094;4.870;2022-08-03T14:59:12;7.57;;;1.80;;
51495;SDS011;37572;52.094;4.870;2022-08-03T15:01:37;9.70;;;2.03;;
51495;SDS011;37572;52.094;4.870;2022-08-03T15:04:02;11.23;;;1.65;;
51495;SDS011;37572;52.094;4.870;2022-08-03T15:06:28;8.10;;;1.70;;
51495;SDS011;37572;52.094;4.870;2022-08-03T15:08:53;5.15;;;1.98;;
51495;SDS011;37572;52.094;4.870;2022-08-03T15:11:18;5.45;;;1.55;;
51495;SDS011;37572;52.094;4.870;2022-08-03T15:13:44;7.85;;;2.08;;
51495;SDS011;37572;52.094;4.870;2022-08-03T15:16:09;8.55;;;1.83;;
51495;SDS011;37572;52.094;4.870;2022-08-03T15:18:34;5.60;;;2.25;;
51495;SDS011;37572;52.094;4.870;2022-08-03T15:20:59;11.73;;;1.92;;
51495;SDS011;37572;52.094;4.870;2022-08-03T15:23:26;7.88;;;1.73;;
51495;SDS011;37572;52.094;4.870;2022-08-03T15:25:51;7.60;;;2.10;;
51495;SDS011;37572;52.094;4.870;2022-08-03T15:28:16;7.03;;;1.65;;
51495;SDS011;37572;52.094;4.870;2022-08-03T15:30:42;3.83;;;1.50;;
51495;SDS011;37572;52.094;4.870;2022-08-03T15:33:07;8.73;;;2.03;;
51495;SDS011;37572;52.094;4.870;2022-08-03T15:35:33;12.77;;;2.13;;
51495;SDS011;37572;52.094;4.870;2022-08-03T15:37:59;9.50;;;2.20;;
51495;SDS011;37572;52.094;4.870;2022-08-03T15:40:24;6.18;;;1.88;;
51495;SDS011;37572;52.094;4.870;2022-08-03T15:42:50;5.93;;;2.40;;
51495;SDS011;37572;52.094;4.870;2022-08-03T15:45:15;8.20;;;1.75;;
51495;SDS011;37572;52.094;4.870;2022-08-03T15:47:40;7.20;;;1.90;;